TimeEDT,TemperatureF,Dew PointF,Humidity,Sea Level PressureIn,VisibilityMPH,Wind Direction,Wind SpeedMPH,Gust SpeedMPH,PrecipitationIn,Events,Conditions,WindDirDegrees,DateUTC
12:26 AM,51.8,48.2,88,28.41,2.5,ENE,28.8,38.0,0.02,Rain,Rain,70,2012-10-30 04:26:00
12:53 AM,50.0,46.9,89,28.45,3.0,East,25.3,38.0,0.05,Rain,Light Rain,90,2012-10-30 04:53:00
5:25 AM,44.6,39.2,81,28.94,10.0,SE,19.6,35.7,0.00,Rain,Light Rain,140,2012-10-30 09:25:00
5:53 AM,43.0,39.0,86,28.98,10.0,SE,18.4,29.9,0.01,Rain,Light Rain,140,2012-10-30 09:53:00
6:07 AM,42.8,39.2,87,28.98,10.0,SE,18.4,24.2,0.00,Rain,Light Rain,130,2012-10-30 10:07:00
6:53 AM,43.0,39.9,89,29.04,8.0,SE,15.0,-,0.01,Rain,Light Rain,130,2012-10-30 10:53:00
7:29 AM,42.8,39.2,87,29.07,4.0,SE,12.7,19.6,0.01,Rain,Light Rain,130,2012-10-30 11:29:00
7:53 AM,43.0,39.9,89,29.09,7.0,SE,16.1,-,0.02,Rain,Light Rain,140,2012-10-30 11:53:00
8:01 AM,42.8,39.2,87,29.10,5.0,SE,12.7,-,0.00,Rain,Light Rain,140,2012-10-30 12:01:00
8:22 AM,42.8,39.2,87,29.11,3.0,SSE,11.5,-,0.01,Rain,Light Rain,150,2012-10-30 12:22:00
8:31 AM,42.8,41.0,93,29.12,2.0,South,6.9,-,0.02,Rain,Rain,180,2012-10-30 12:31:00
8:41 AM,42.8,39.2,87,29.13,1.8,SSE,13.8,19.6,0.05,Rain,Heavy Rain,160,2012-10-30 12:41:00
8:48 AM,42.8,39.2,87,29.13,2.5,South,15.0,21.9,0.07,Rain,Rain,170,2012-10-30 12:48:00
8:50 AM,42.8,39.2,87,29.13,2.5,SSE,13.8,21.9,0.07,Rain,Rain,160,2012-10-30 12:50:00
8:53 AM,42.1,39.0,89,29.14,2.0,SSE,11.5,21.9,0.08,Rain,Rain,160,2012-10-30 12:53:00
9:03 AM,42.8,39.2,87,29.15,3.0,South,11.5,-,0.01,Rain,Rain,170,2012-10-30 13:03:00
9:53 AM,43.0,39.9,89,29.18,6.0,SSE,8.1,-,0.05,Rain,Rain,160,2012-10-30 13:53:00
10:04 AM,42.8,39.2,87,29.18,5.0,SSE,9.2,-,0.01,Rain,Light Rain,160,2012-10-30 14:04:00
10:29 AM,42.8,39.2,87,29.20,6.0,South,9.2,-,0.03,Rain,Light Rain,170,2012-10-30 14:29:00
11:37 AM,42.8,39.2,87,29.23,5.0,South,8.1,-,0.04,Rain,Light Rain,190,2012-10-30 15:37:00
11:53 AM,42.1,39.0,89,29.25,7.0,SSE,8.1,-,0.05,Rain,Light Rain,160,2012-10-30 15:53:00
12:00 PM,42.8,39.2,87,29.25,9.0,South,5.8,-,0.01,Rain,Light Rain,170,2012-10-30 16:00:00
12:08 PM,42.8,39.2,87,29.25,9.0,Variable,6.9,-,0.01,Rain,Light Rain,0,2012-10-30 16:08:00
12:15 PM,42.8,39.2,87,29.25,8.0,SSE,10.4,-,0.02,Rain,Light Rain,160,2012-10-30 16:15:00
12:26 PM,44.6,39.2,81,29.25,9.0,SSE,16.1,20.7,0.03,Rain,Light Rain,160,2012-10-30 16:26:00
12:30 PM,44.6,39.2,81,29.26,10.0,SSE,10.4,20.7,0.03,Rain,Light Rain,150,2012-10-30 16:30:00
12:41 PM,42.8,39.2,87,29.26,8.0,SSE,15.0,20.7,0.04,Rain,Light Rain,150,2012-10-30 16:41:00
12:53 PM,43.0,39.0,86,29.27,9.0,South,15.0,-,0.04,Rain,Light Rain,170,2012-10-30 16:53:00
1:17 PM,42.8,39.2,87,29.28,5.0,SE,12.7,-,0.01,Rain,Light Rain,140,2012-10-30 17:17:00
1:38 PM,42.8,39.2,87,29.28,3.0,SE,13.8,-,0.03,Rain,Rain,140,2012-10-30 17:38:00
1:53 PM,42.1,39.0,89,29.29,3.0,SE,12.7,-,0.04,Rain,Light Rain,140,2012-10-30 17:53:00
2:15 PM,42.8,39.2,87,29.30,3.0,SE,11.5,-,0.01,Rain,Light Rain,140,2012-10-30 18:15:00
2:30 PM,42.8,37.4,81,29.30,3.0,SE,11.5,-,0.03,Rain,Light Rain,140,2012-10-30 18:30:00
2:53 PM,42.1,37.9,85,29.31,8.0,SSE,12.7,-,0.03,Rain,Light Rain,150,2012-10-30 18:53:00
3:28 PM,42.8,39.2,87,29.32,5.0,SSE,9.2,-,0.01,Rain,Light Rain,150,2012-10-30 19:28:00
3:53 PM,42.1,39.0,89,29.34,9.0,SSE,12.7,-,0.03,Rain,Light Rain,150,2012-10-30 19:53:00
4:27 PM,42.8,37.4,81,29.35,10.0,SSE,9.2,-,0.00,Rain,Light Rain,160,2012-10-30 20:27:00
4:53 PM,42.1,37.9,85,29.36,10.0,SSE,9.2,-,0.01,Rain,Light Rain,150,2012-10-30 20:53:00
5:18 PM,42.8,37.4,81,29.37,10.0,SSE,8.1,-,0.00,Rain,Light Rain,150,2012-10-30 21:18:00
5:53 PM,41.0,37.9,89,29.39,10.0,SSE,8.1,-,0.01,Rain,Light Rain,150,2012-10-30 21:53:00
6:53 PM,41.0,37.9,89,29.42,10.0,SE,6.9,-,0.00,Rain,Light Rain,140,2012-10-30 22:53:00
7:28 PM,41.0,37.4,87,29.42,10.0,SE,5.8,-,0.01,Rain,Light Rain,140,2012-10-30 23:28:00
7:49 PM,41.0,37.4,87,29.42,10.0,SE,4.6,-,0.01,Rain,Light Rain,140,2012-10-30 23:49:00
8:17 PM,41.0,37.4,87,29.43,10.0,SSE,6.9,-,0.00,Rain,Light Rain,160,2012-10-31 00:17:00
8:51 PM,41.0,37.4,87,29.44,10.0,South,4.6,-,0.02,Rain,Light Rain,180,2012-10-31 00:51:00
8:53 PM,41.0,37.0,86,29.45,10.0,South,3.5,-,0.02,Rain,Light Rain,170,2012-10-31 00:53:00
9:32 PM,41.0,37.4,87,29.45,10.0,Calm,Calm,-,0.01,Rain,Light Rain,0,2012-10-31 01:32:00
9:43 PM,41.0,37.4,87,29.45,10.0,SSE,4.6,-,0.01,Rain,Light Rain,160,2012-10-31 01:43:00
9:53 PM,41.0,37.9,89,29.45,10.0,SSE,4.6,-,0.01,Rain,Light Rain,160,2012-10-31 01:53:00
10:53 PM,41.0,37.9,89,29.46,10.0,South,3.5,-,0.01,Rain,Light Rain,170,2012-10-31 02:53:00
11:53 PM,41.0,37.9,89,29.45,10.0,South,4.6,-,0.00,Rain,Light Rain,190,2012-10-31 03:53:00